createdAt,value
2022-08-19T00:05:08.635Z,65.5
2022-08-19T00:10:31.500Z,65.4
2022-08-19T00:16:17.963Z,65.4
2022-08-19T00:22:00.085Z,65.4
2022-08-19T00:27:59.187Z,65.3
2022-08-19T00:33:24.562Z,65.3
2022-08-19T00:39:10.217Z,65.2
2022-08-19T00:44:34.121Z,65.2
2022-08-19T00:49:42.445Z,65.1
2022-08-19T00:55:25.707Z,65.1
2022-08-19T01:01:44.495Z,65
2022-08-19T01:07:35.810Z,64.9
2022-08-19T01:13:14.906Z,64.9
2022-08-19T01:19:10.146Z,64.9
2022-08-19T01:25:07.925Z,64.8
2022-08-19T01:31:26.614Z,64.7
2022-08-19T01:37:24.846Z,64.7
2022-08-19T01:43:19.578Z,64.6
2022-08-19T01:49:25.403Z,64.6
2022-08-19T01:55:17.362Z,64.5
2022-08-19T02:00:37.308Z,64.4
2022-08-19T02:06:19.825Z,64.4
2022-08-19T02:12:13.819Z,64.3
2022-08-19T02:17:57.392Z,64.3
2022-08-19T02:23:46.430Z,64.3
2022-08-19T02:29:24.870Z,64.2
2022-08-19T02:35:02.749Z,64.1
2022-08-19T02:41:04.800Z,64.1
2022-08-19T02:47:21.370Z,64
2022-08-19T02:53:11.113Z,64
2022-08-19T02:58:57.866Z,63.9
2022-08-19T03:04:23.292Z,63.9
2022-08-19T03:10:35.507Z,63.8
2022-08-19T03:16:11.568Z,63.8
2022-08-19T03:21:38.737Z,63.7
2022-08-19T03:27:38.351Z,63.6
2022-08-19T03:34:30.365Z,63.6
2022-08-19T03:40:02.180Z,63.6
2022-08-19T03:46:35.072Z,63.4
2022-08-19T03:52:20.481Z,63.3
2022-08-19T03:58:04.957Z,63.3
2022-08-19T04:04:06.842Z,63.3
2022-08-19T04:09:51.379Z,63.2
2022-08-19T04:15:44.086Z,63.1
2022-08-19T04:21:12.761Z,63.1
2022-08-19T04:26:42.208Z,63
2022-08-19T04:32:25.850Z,62.9
2022-08-19T04:38:41.607Z,62.9
2022-08-19T04:44:21.078Z,62.8
2022-08-19T04:51:31.628Z,62.8
2022-08-19T04:57:16.296Z,62.8
2022-08-19T05:02:40.964Z,62.7
2022-08-19T05:08:30.556Z,62.6
2022-08-19T05:14:33.879Z,62.6
2022-08-19T05:20:33.006Z,62.5
2022-08-19T05:26:41.822Z,62.4
2022-08-19T05:32:31.269Z,62.4
2022-08-19T05:38:17.372Z,62.3
2022-08-19T05:44:01.034Z,62.3
2022-08-19T05:49:44.268Z,62.3
2022-08-19T05:55:27.213Z,62.2
2022-08-19T06:01:05.334Z,62.1
2022-08-19T06:06:57.940Z,62.1
2022-08-19T06:13:01.883Z,62
2022-08-19T06:18:58.616Z,61.9
2022-08-19T06:25:03.921Z,61.9
2022-08-19T06:31:05.180Z,61.8
2022-08-19T06:36:43.474Z,61.8
2022-08-19T06:42:27.447Z,61.8
2022-08-19T06:48:39.494Z,61.7
2022-08-19T06:55:12.506Z,61.6
2022-08-19T07:00:50.651Z,61.6
2022-08-19T07:07:36.242Z,61.5
2022-08-19T07:13:33.925Z,61.4
2022-08-19T07:19:49.771Z,61.4
2022-08-19T07:26:09.495Z,61.4
2022-08-19T07:32:29.894Z,61.3
2022-08-19T07:38:11.539Z,61.3
2022-08-19T07:43:53.078Z,61.2
2022-08-19T07:50:08.345Z,61.1
2022-08-19T07:56:29.333Z,61.1
2022-08-19T08:02:14.886Z,61.1
2022-08-19T08:08:04.463Z,61
2022-08-19T08:15:12.601Z,60.9
2022-08-19T08:21:44.168Z,60.9
2022-08-19T08:27:34.597Z,60.8
2022-08-19T08:33:50.957Z,60.8
2022-08-19T08:39:34.030Z,60.7
2022-08-19T08:45:42.567Z,60.7
2022-08-19T08:51:38.207Z,60.6
2022-08-19T08:57:44.731Z,60.6
2022-08-19T09:03:34.498Z,60.5
2022-08-19T09:10:04.658Z,60.4
2022-08-19T09:17:02.969Z,60.4
2022-08-19T09:23:14.794Z,60.3
2022-08-19T09:29:57.217Z,60.3
2022-08-19T09:36:31.263Z,60.3
2022-08-19T09:42:30.182Z,60.2
2022-08-19T09:48:23.623Z,60.1
2022-08-19T09:54:23.805Z,60.1
2022-08-19T10:00:14.879Z,60
2022-08-19T10:06:40.657Z,60
2022-08-19T10:13:41.046Z,59.9
2022-08-19T10:20:28.376Z,59.9
2022-08-19T10:26:16.452Z,59.8
2022-08-19T10:32:50.710Z,59.8
2022-08-19T10:39:47.282Z,59.7
2022-08-19T10:45:28.230Z,59.6
2022-08-19T10:51:22.691Z,59.6
2022-08-19T10:58:09.004Z,59.6
2022-08-19T11:03:54.988Z,59.5
2022-08-19T11:10:10.300Z,59.4
2022-08-19T11:15:43.934Z,59.4
2022-08-19T11:21:25.991Z,59.4
2022-08-19T11:27:13.098Z,59.3
2022-08-19T11:32:53.826Z,59.3
2022-08-19T11:38:35.368Z,59.3
2022-08-19T11:44:13.167Z,59.2
2022-08-19T11:50:02.918Z,59.1
2022-08-19T11:55:44.852Z,59.1
2022-08-19T12:01:32.512Z,59.1
2022-08-19T12:07:14.651Z,59
2022-08-19T12:13:03.844Z,58.9
2022-08-19T12:18:38.347Z,58.9
2022-08-19T12:24:17.433Z,58.9
2022-08-19T12:30:15.394Z,58.8
2022-08-19T12:35:54.553Z,58.8
2022-08-19T12:41:38.313Z,58.8
2022-08-19T12:47:31.864Z,58.5
2022-08-19T12:54:28.642Z,58.6
2022-08-19T13:05:41.334Z,58.5
2022-08-19T13:11:23.109Z,58.5
2022-08-19T13:17:12.709Z,58.4
2022-08-19T13:23:02.633Z,58.4
2022-08-19T13:28:49.191Z,58.4
2022-08-19T13:34:39.386Z,58.3
2022-08-19T13:40:22.098Z,58.3
2022-08-19T13:46:13.015Z,58.2
2022-08-19T13:51:58.513Z,58.3
2022-08-19T13:57:47.146Z,58.2
2022-08-19T14:03:25.862Z,58.1
2022-08-19T14:09:03.622Z,58.1
2022-08-19T14:14:49.115Z,58
2022-08-19T14:20:34.873Z,57.9
2022-08-19T14:26:19.874Z,57.9
2022-08-19T14:32:03.754Z,57.9
2022-08-19T14:37:47.401Z,57.8
2022-08-19T14:55:03.371Z,57.7
2022-08-19T15:01:05.496Z,57.6
2022-08-19T15:07:02.298Z,57.6
2022-08-19T15:12:55.174Z,57.6
2022-08-19T15:18:51.895Z,57.5
2022-08-19T15:24:18.630Z,57.4
2022-08-19T15:30:01.329Z,57.4
2022-08-19T15:35:45.768Z,57.4
2022-08-19T15:41:28.035Z,57.3
2022-08-19T15:47:06.359Z,57.3
2022-08-19T15:53:01.508Z,57.4
2022-08-19T15:59:17.683Z,57.3
2022-08-19T16:05:37.172Z,57.2
2022-08-19T16:11:57.052Z,57.1
2022-08-19T16:17:39.291Z,57.1
2022-08-19T16:23:21.453Z,57.2
2022-08-19T16:29:14.196Z,56.9
2022-08-19T16:35:06.801Z,57.1
2022-08-19T16:40:50.635Z,56.9
2022-08-19T16:46:35.179Z,56.9
2022-08-19T16:52:49.430Z,56.9
2022-08-19T16:58:35.134Z,56.8
2022-08-19T17:04:25.894Z,56.7
2022-08-19T17:10:15.959Z,56.7
2022-08-19T17:16:29.624Z,56.7
2022-08-19T17:22:10.121Z,56.7
2022-08-19T17:27:59.169Z,56.6
2022-08-19T17:33:31.274Z,56.6
2022-08-19T17:39:11.575Z,56.5
2022-08-19T17:45:11.496Z,56.5
2022-08-19T17:50:55.820Z,56.4
2022-08-19T17:56:38.830Z,56.4
2022-08-19T18:03:02.896Z,56.4
2022-08-19T18:08:34.142Z,56.4
2022-08-19T18:14:23.930Z,56.3
2022-08-19T18:20:13.690Z,56.2
2022-08-19T18:26:20.096Z,56.2
2022-08-19T18:31:57.485Z,56.1
2022-08-19T18:37:45.108Z,56.1
2022-08-19T18:43:10.415Z,56.1
2022-08-19T18:49:16.407Z,56.1
2022-08-19T18:54:54.819Z,55.9
2022-08-19T19:00:33.818Z,56
2022-08-19T19:06:13.160Z,55.9
2022-08-19T19:11:51.762Z,55.9
2022-08-19T19:17:53.040Z,55.9
2022-08-19T19:23:30.812Z,55.8
2022-08-19T19:29:36.875Z,55.8
2022-08-19T19:35:35.550Z,55.6
2022-08-19T19:41:25.570Z,55.6
2022-08-19T19:47:21.656Z,55.6
2022-08-19T19:53:37.438Z,55.5
2022-08-19T19:59:18.833Z,55.5
2022-08-19T20:05:09.868Z,55.5
2022-08-19T20:10:55.870Z,55.4
2022-08-19T20:16:33.377Z,55.4
2022-08-19T20:21:38.818Z,55.4
2022-08-19T20:28:04.517Z,55.3
2022-08-19T20:34:37.043Z,55.4
2022-08-19T20:40:16.674Z,55.3
2022-08-19T20:46:08.898Z,55.3
2022-08-19T20:52:01.681Z,55.2
2022-08-19T20:57:45.278Z,55.1
2022-08-19T21:03:28.700Z,55.1
2022-08-19T21:09:29.187Z,55.1
2022-08-19T21:15:21.447Z,55
2022-08-19T21:21:03.535Z,54.9
2022-08-19T21:26:59.945Z,54.9
2022-08-19T21:32:32.955Z,54.9
2022-08-19T21:38:31.378Z,54.9
2022-08-19T21:44:17.921Z,54.8
2022-08-19T21:49:28.516Z,54.8
2022-08-19T21:55:11.863Z,54.8
2022-08-19T22:00:52.526Z,54.8
2022-08-19T22:06:35.487Z,54.7
2022-08-19T22:12:18.947Z,54.7
2022-08-19T22:17:58.437Z,54.6
2022-08-19T22:23:56.963Z,54.6
2022-08-19T22:29:52.434Z,54.6
2022-08-19T22:35:52.488Z,54.4
2022-08-19T22:41:13.667Z,54.4
2022-08-19T22:46:36.938Z,54.4
2022-08-19T22:52:34.154Z,54.4
2022-08-19T22:57:55.586Z,54.4
2022-08-19T23:03:57.882Z,54.3
2022-08-19T23:09:46.918Z,54.3
2022-08-19T23:15:31.839Z,54.2
2022-08-19T23:21:17.569Z,54.2
2022-08-19T23:26:48.135Z,54.2
2022-08-19T23:32:27.488Z,54.2
2022-08-19T23:38:24.877Z,54.1
2022-08-19T23:44:14.767Z,54
2022-08-19T23:50:05.339Z,54.1
2022-08-19T23:56:05.675Z,53.9
